createdAt,value
2023-05-16T00:14:16.193Z,324
2023-05-16T00:34:15.988Z,311
2023-05-16T00:54:16.111Z,321
2023-05-16T01:14:16.100Z,345
2023-05-16T01:34:16.092Z,352
2023-05-16T01:54:16.054Z,348
2023-05-16T02:14:16.035Z,349
2023-05-16T02:34:15.997Z,338
2023-05-16T02:54:15.989Z,350
2023-05-16T03:14:15.947Z,340
2023-05-16T03:54:15.891Z,341
2023-05-16T04:14:15.873Z,351
2023-05-16T04:34:15.857Z,343
2023-05-16T04:54:15.833Z,356
2023-05-16T05:14:15.793Z,340
2023-05-16T05:34:15.784Z,352
2023-05-16T05:54:15.780Z,348
2023-05-16T06:14:15.736Z,348
2023-05-16T06:34:15.716Z,364
2023-05-16T06:54:15.194Z,363
2023-05-16T07:14:15.656Z,354
2023-05-16T07:34:15.660Z,340
2023-05-16T07:54:15.620Z,353
2023-05-16T08:14:15.590Z,343
2023-05-16T08:34:15.572Z,339
2023-05-16T08:54:15.533Z,334
2023-05-16T09:14:15.521Z,335
2023-05-16T09:34:15.481Z,332
2023-05-16T09:54:15.249Z,314
2023-05-16T10:14:15.416Z,324
2023-05-16T10:34:15.395Z,322
2023-05-16T10:54:15.362Z,327
2023-05-16T11:14:15.316Z,320
2023-05-16T11:34:14.794Z,334
2023-05-16T11:54:15.274Z,327
2023-05-16T12:14:15.243Z,328
2023-05-16T12:34:14.717Z,330
2023-05-16T12:54:15.188Z,340
2023-05-16T13:14:15.156Z,307
2023-05-16T13:34:15.148Z,313
2023-05-16T13:54:15.087Z,294
2023-05-16T14:14:15.081Z,314
2023-05-16T14:34:14.535Z,327
2023-05-16T14:54:15.014Z,310
2023-05-16T15:14:14.486Z,322
2023-05-16T15:34:14.947Z,322
2023-05-16T15:54:14.923Z,321
2023-05-16T16:14:14.896Z,324
2023-05-16T16:34:14.693Z,327
2023-05-16T16:54:14.835Z,320
2023-05-16T17:14:14.809Z,325
2023-05-16T17:34:14.792Z,312
2023-05-16T17:54:14.757Z,320
2023-05-16T18:14:14.259Z,335
2023-05-16T18:34:14.701Z,326
2023-05-16T18:54:14.683Z,319
2023-05-16T19:14:14.194Z,335
2023-05-16T19:34:14.646Z,324
2023-05-16T19:54:14.612Z,323
2023-05-16T20:14:14.590Z,323
2023-05-16T20:34:14.583Z,331
2023-05-16T20:54:14.520Z,331
2023-05-16T21:14:14.531Z,293
2023-05-16T21:34:14.477Z,322
2023-05-16T21:54:13.965Z,328
2023-05-16T22:14:14.507Z,317
2023-05-16T22:34:14.407Z,312
2023-05-16T22:54:14.392Z,325
2023-05-16T23:14:14.354Z,311
2023-05-16T23:34:14.340Z,305
2023-05-16T23:54:14.316Z,307
